createdAt,value
2022-08-20T00:02:00.135Z,21.37
2022-08-20T00:05:05.991Z,21.38
2022-08-20T00:08:11.528Z,21.41
2022-08-20T00:11:16.821Z,21.47
2022-08-20T00:14:22.299Z,21.50
2022-08-20T00:17:28.645Z,21.53
2022-08-20T00:20:34.217Z,21.71
2022-08-20T00:23:39.735Z,21.73
2022-08-20T00:26:51.656Z,21.72
2022-08-20T00:29:57.860Z,21.89
2022-08-20T00:33:05.280Z,21.92
2022-08-20T00:36:12.255Z,21.93
2022-08-20T00:39:17.905Z,21.97
2022-08-20T00:42:23.426Z,22.01
2022-08-20T00:45:28.656Z,22.01
2022-08-20T00:48:33.691Z,22.00
2022-08-20T00:51:39.349Z,22.01
2022-08-20T00:54:45.515Z,21.99
2022-08-20T00:58:01.089Z,21.96
2022-08-20T01:01:07.446Z,21.91
2022-08-20T01:04:12.702Z,21.87
2022-08-20T01:07:20.860Z,21.74
2022-08-20T01:10:39.272Z,21.76
2022-08-20T01:13:45.389Z,21.88
2022-08-20T01:16:51.001Z,22.02
2022-08-20T01:19:56.931Z,22.12
2022-08-20T01:23:19.941Z,22.21
2022-08-20T01:26:31.533Z,22.20
2022-08-20T01:29:37.208Z,22.15
2022-08-20T01:33:02.512Z,22.16
2022-08-20T01:36:08.481Z,22.15
2022-08-20T01:39:13.899Z,22.07
2022-08-20T01:42:20.903Z,22.12
2022-08-20T01:45:27.987Z,22.14
2022-08-20T01:48:36.098Z,22.13
2022-08-20T01:51:41.251Z,22.07
2022-08-20T01:54:47.743Z,22.07
2022-08-20T01:57:57.145Z,22.03
2022-08-20T02:01:02.970Z,21.90
2022-08-20T02:04:27.371Z,21.81
2022-08-20T02:07:33.505Z,21.76
2022-08-20T02:10:39.043Z,21.74
2022-08-20T02:13:45.630Z,21.74
2022-08-20T02:16:55.003Z,21.77
2022-08-20T02:20:01.243Z,21.83
2022-08-20T02:23:06.575Z,21.90
2022-08-20T02:26:19.517Z,21.95
2022-08-20T02:29:26.252Z,21.99
2022-08-20T02:32:33.788Z,22.06
2022-08-20T02:35:39.904Z,22.11
2022-08-20T02:38:45.804Z,22.15
2022-08-20T02:41:51.353Z,22.16
2022-08-20T02:44:58.698Z,22.21
2022-08-20T02:48:04.471Z,22.25
2022-08-20T02:51:09.984Z,22.25
2022-08-20T02:54:15.548Z,22.23
2022-08-20T02:57:21.261Z,22.21
2022-08-20T03:00:26.655Z,22.18
2022-08-20T03:03:32.240Z,22.15
2022-08-20T03:06:37.358Z,22.14
2022-08-20T03:09:42.699Z,22.23
2022-08-20T03:12:48.512Z,22.33
2022-08-20T03:15:58.103Z,22.34
2022-08-20T03:19:04.270Z,22.31
2022-08-20T03:22:10.064Z,22.22
2022-08-20T03:25:15.491Z,22.15
2022-08-20T03:28:21.811Z,22.12
2022-08-20T03:31:27.381Z,22.03
2022-08-20T03:34:32.947Z,22.01
2022-08-20T03:37:39.781Z,22.02
2022-08-20T03:40:51.197Z,22.02
2022-08-20T03:43:56.523Z,22.07
2022-08-20T03:47:01.927Z,22.13
2022-08-20T03:50:07.232Z,22.24
2022-08-20T03:53:14.625Z,22.25
2022-08-20T03:56:20.455Z,22.27
2022-08-20T03:59:25.742Z,22.22
2022-08-20T04:02:43.748Z,22.15
2022-08-20T04:05:49.576Z,22.14
2022-08-20T04:08:57.805Z,22.16
2022-08-20T04:12:03.548Z,22.19
2022-08-20T04:15:08.993Z,22.20
2022-08-20T04:18:15.024Z,22.23
2022-08-20T04:21:20.510Z,22.26
2022-08-20T04:24:43.122Z,22.32
2022-08-20T04:27:50.682Z,22.45
2022-08-20T04:30:56.541Z,22.56
2022-08-20T04:34:09.597Z,22.72
2022-08-20T04:37:17.573Z,22.81
2022-08-20T04:40:40.517Z,22.93
2022-08-20T04:43:46.376Z,23.14
2022-08-20T04:46:51.483Z,23.40
2022-08-20T04:50:04.967Z,23.61
2022-08-20T04:53:10.378Z,23.71
2022-08-20T04:56:15.863Z,23.70
2022-08-20T04:59:21.020Z,23.68
2022-08-20T05:02:27.387Z,23.72
2022-08-20T05:05:38.461Z,23.82
2022-08-20T05:08:43.728Z,23.85
2022-08-20T05:11:49.119Z,23.88
2022-08-20T05:14:57.523Z,23.87
2022-08-20T05:18:03.126Z,23.90
2022-08-20T05:21:08.576Z,23.89
2022-08-20T05:24:14.695Z,23.92
2022-08-20T05:27:24.697Z,23.98
2022-08-20T05:30:33.474Z,23.99
2022-08-20T05:33:39.650Z,23.92
2022-08-20T05:36:45.454Z,23.84
2022-08-20T05:39:55.803Z,23.82
2022-08-20T05:43:06.023Z,23.77
2022-08-20T05:46:11.305Z,23.73
2022-08-20T05:49:16.719Z,23.76
2022-08-20T05:52:23.336Z,23.76
2022-08-20T05:55:28.741Z,23.80
2022-08-20T05:58:40.750Z,23.84
2022-08-20T06:01:47.831Z,23.85
2022-08-20T06:04:56.298Z,23.84
2022-08-20T06:08:07.897Z,23.78
2022-08-20T06:11:13.959Z,23.64
2022-08-20T06:14:23.151Z,23.42
2022-08-20T06:17:34.817Z,23.10
2022-08-20T06:20:46.023Z,22.70
2022-08-20T06:23:58.554Z,22.39
2022-08-20T06:27:06.649Z,22.15
2022-08-20T06:30:12.976Z,22.09
2022-08-20T06:33:19.100Z,22.07
2022-08-20T06:36:25.047Z,22.14
2022-08-20T06:39:31.208Z,22.15
2022-08-20T06:42:39.553Z,22.18
2022-08-20T06:45:45.269Z,22.16
2022-08-20T06:48:50.865Z,22.14
2022-08-20T06:51:56.080Z,22.23
2022-08-20T06:55:01.734Z,22.29
2022-08-20T06:58:07.071Z,22.35
2022-08-20T07:01:09.181Z,22.25
2022-08-20T07:03:54.882Z,22.32
2022-08-20T07:06:25.717Z,22.31
2022-08-20T07:09:08.864Z,22.42
2022-08-20T07:11:36.940Z,22.45
2022-08-20T07:14:05.971Z,22.47
2022-08-20T07:16:35.295Z,22.52
2022-08-20T07:19:03.669Z,22.44
2022-08-20T07:21:31.728Z,22.42
2022-08-20T07:24:09.746Z,22.49
2022-08-20T07:26:37.816Z,22.59
2022-08-20T07:29:05.772Z,22.75
2022-08-20T07:31:52.599Z,22.81
2022-08-20T07:34:21.170Z,22.86
2022-08-20T07:36:50.380Z,22.85
2022-08-20T07:39:19.073Z,22.91
2022-08-20T07:42:03.026Z,22.86
2022-08-20T07:44:32.279Z,22.86
2022-08-20T07:47:12.499Z,22.99
2022-08-20T07:49:40.975Z,23.13
2022-08-20T07:52:08.912Z,23.26
2022-08-20T07:54:38.195Z,23.44
2022-08-20T07:57:06.803Z,23.48
2022-08-20T07:59:34.672Z,23.57
2022-08-20T08:02:12.674Z,23.86
2022-08-20T08:04:41.296Z,23.85
2022-08-20T08:07:09.209Z,23.90
2022-08-20T08:09:39.563Z,23.86
2022-08-20T08:12:11.935Z,23.89
2022-08-20T08:14:41.647Z,23.92
2022-08-20T08:17:55.707Z,23.92
2022-08-20T08:21:02.641Z,23.92
2022-08-20T08:24:07.972Z,23.94
2022-08-20T08:27:14.272Z,23.97
2022-08-20T08:30:19.511Z,23.86
2022-08-20T08:33:34.769Z,24.01
2022-08-20T08:36:40.481Z,24.22
2022-08-20T08:39:46.472Z,24.34
2022-08-20T08:42:58.473Z,24.25
2022-08-20T08:46:04.035Z,24.38
2022-08-20T08:49:09.600Z,24.61
2022-08-20T08:52:15.290Z,24.81
2022-08-20T08:55:21.732Z,24.79
2022-08-20T08:58:28.086Z,24.74
2022-08-20T09:01:54.280Z,24.68
2022-08-20T09:04:58.946Z,24.44
2022-08-20T09:08:04.287Z,24.13
2022-08-20T09:14:36.099Z,23.89
2022-08-20T09:17:41.258Z,23.80
2022-08-20T09:20:46.729Z,23.72
2022-08-20T09:23:52.006Z,23.80
2022-08-20T09:26:57.853Z,23.77
2022-08-20T09:30:03.274Z,23.87
2022-08-20T09:33:11.730Z,23.93
2022-08-20T09:36:29.220Z,23.93
2022-08-20T09:39:38.159Z,23.83
2022-08-20T09:42:43.463Z,23.95
2022-08-20T09:45:49.796Z,23.97
2022-08-20T09:48:55.158Z,23.94
2022-08-20T09:52:00.437Z,24.14
2022-08-20T09:55:06.075Z,24.27
2022-08-20T09:58:14.391Z,24.40
2022-08-20T10:01:20.193Z,24.55
2022-08-20T10:04:25.820Z,24.67
2022-08-20T10:07:31.102Z,24.88
2022-08-20T10:10:36.198Z,24.97
2022-08-20T10:13:42.069Z,25.25
2022-08-20T10:16:48.454Z,25.43
2022-08-20T10:19:54.043Z,25.66
2022-08-20T10:22:59.937Z,25.42
2022-08-20T10:26:05.516Z,25.25
2022-08-20T10:29:11.570Z,25.05
2022-08-20T10:32:17.332Z,25.03
2022-08-20T10:35:22.612Z,24.92
2022-08-20T10:38:27.860Z,24.89
2022-08-20T10:44:57.876Z,24.78
2022-08-20T10:48:03.589Z,24.97
2022-08-20T10:51:09.016Z,25.12
2022-08-20T10:54:15.581Z,25.16
2022-08-20T10:57:21.324Z,25.07
2022-08-20T11:00:29.741Z,24.93
2022-08-20T11:03:35.535Z,24.78
2022-08-20T11:06:41.328Z,24.60
2022-08-20T11:09:46.879Z,24.44
2022-08-20T11:12:52.722Z,24.44
2022-08-20T11:15:58.220Z,24.49
2022-08-20T11:19:03.483Z,24.51
2022-08-20T11:22:12.184Z,24.45
2022-08-20T11:25:17.473Z,24.43
2022-08-20T11:28:31.066Z,24.45
2022-08-20T11:31:37.424Z,24.35
2022-08-20T11:34:43.003Z,24.26
2022-08-20T11:37:50.255Z,24.07
2022-08-20T11:40:55.592Z,23.90
2022-08-20T11:44:21.321Z,23.69
2022-08-20T11:47:27.473Z,23.60
2022-08-20T11:50:32.782Z,23.59
2022-08-20T11:53:38.569Z,23.56
2022-08-20T11:56:45.916Z,23.56
2022-08-20T11:59:51.856Z,23.55
2022-08-20T12:02:57.745Z,23.50
2022-08-20T12:06:05.887Z,23.36
2022-08-20T12:09:30.972Z,23.41
2022-08-20T12:12:36.710Z,23.45
2022-08-20T12:15:43.843Z,23.56
2022-08-20T12:18:50.371Z,23.63
2022-08-20T12:21:56.144Z,23.74
2022-08-20T12:25:03.268Z,23.80
2022-08-20T12:28:10.136Z,23.99
2022-08-20T12:31:21.011Z,24.23
2022-08-20T12:34:26.626Z,24.41
2022-08-20T12:37:32.023Z,24.43
2022-08-20T12:40:44.125Z,24.38
2022-08-20T12:43:49.926Z,24.32
2022-08-20T12:46:55.447Z,24.13
2022-08-20T12:50:01.555Z,23.95
2022-08-20T12:53:06.852Z,23.94
2022-08-20T12:56:12.939Z,24.01
2022-08-20T12:59:18.231Z,24.01
2022-08-20T13:02:24.044Z,24.02
2022-08-20T13:05:42.659Z,23.95
2022-08-20T13:08:48.247Z,23.77
2022-08-20T13:11:54.399Z,23.76
2022-08-20T13:14:59.755Z,23.83
2022-08-20T13:18:05.506Z,23.98
2022-08-20T13:21:11.082Z,24.04
2022-08-20T13:24:16.631Z,24.14
2022-08-20T13:27:42.052Z,24.20
2022-08-20T13:30:47.524Z,24.12
2022-08-20T13:33:53.134Z,24.11
2022-08-20T13:37:06.290Z,24.11
2022-08-20T13:40:12.830Z,24.12
2022-08-20T13:43:18.531Z,24.19
2022-08-20T13:46:24.352Z,24.22
2022-08-20T13:49:34.142Z,24.32
2022-08-20T13:52:42.769Z,24.43
2022-08-20T13:55:49.919Z,24.42
2022-08-20T13:59:04.534Z,24.46
2022-08-20T14:02:10.177Z,24.41
2022-08-20T14:05:17.277Z,24.52
2022-08-20T14:08:24.939Z,24.45
2022-08-20T14:11:30.524Z,24.47
2022-08-20T14:14:36.090Z,24.49
2022-08-20T14:17:43.390Z,24.58
2022-08-20T14:20:50.119Z,24.51
2022-08-20T14:23:55.556Z,24.32
2022-08-20T14:27:01.038Z,24.25
2022-08-20T14:30:07.008Z,24.14
2022-08-20T14:33:12.682Z,24.15
2022-08-20T14:36:18.682Z,24.13
2022-08-20T14:39:24.606Z,24.13
2022-08-20T14:42:30.555Z,24.08
2022-08-20T14:45:36.367Z,24.16
2022-08-20T14:48:41.795Z,24.24
2022-08-20T14:51:47.051Z,24.20
2022-08-20T14:54:52.397Z,24.14
2022-08-20T14:57:58.218Z,24.06
2022-08-20T15:01:07.762Z,24.00
2022-08-20T15:04:13.715Z,23.89
2022-08-20T15:07:20.135Z,23.91
2022-08-20T15:10:28.090Z,23.95
2022-08-20T15:13:33.525Z,24.06
2022-08-20T15:16:39.389Z,24.21
2022-08-20T15:19:45.075Z,24.25
2022-08-20T15:22:52.111Z,24.26
2022-08-20T15:25:57.287Z,24.31
2022-08-20T15:29:02.512Z,24.35
2022-08-20T15:32:08.873Z,24.31
2022-08-20T15:35:16.957Z,24.25
2022-08-20T15:38:22.730Z,24.18
2022-08-20T15:41:30.508Z,24.19
2022-08-20T15:44:40.671Z,24.06
2022-08-20T15:47:47.424Z,24.08
2022-08-20T15:50:53.017Z,24.35
2022-08-20T15:53:58.415Z,24.91
2022-08-20T15:57:04.625Z,25.41
2022-08-20T16:00:11.578Z,25.72
2022-08-20T16:03:23.921Z,25.95
2022-08-20T16:06:29.271Z,26.40
2022-08-20T16:09:34.563Z,26.32
2022-08-20T16:12:40.830Z,26.34
2022-08-20T16:15:49.569Z,26.37
2022-08-20T16:18:56.519Z,26.90
2022-08-20T16:22:02.203Z,27.29
2022-08-20T16:25:07.754Z,27.72
2022-08-20T16:28:16.464Z,27.80
2022-08-20T16:31:21.974Z,27.78
2022-08-20T16:34:33.016Z,27.51
2022-08-20T16:37:39.982Z,27.68
2022-08-20T16:40:49.645Z,27.88
2022-08-20T16:43:56.370Z,28.11
2022-08-20T16:47:02.661Z,27.99
2022-08-20T16:50:25.594Z,27.72
2022-08-20T16:53:30.860Z,27.55
2022-08-20T16:56:36.000Z,27.45
2022-08-20T16:59:41.850Z,27.52
2022-08-20T17:02:47.291Z,27.30
2022-08-20T17:05:52.693Z,27.16
2022-08-20T17:08:58.758Z,26.86
2022-08-20T17:12:05.609Z,26.63
2022-08-20T17:15:11.530Z,26.58
2022-08-20T17:18:17.614Z,26.21
2022-08-20T17:21:24.704Z,26.06
2022-08-20T17:24:30.406Z,26.34
2022-08-20T17:27:35.939Z,26.59
2022-08-20T17:30:42.338Z,26.68
2022-08-20T17:33:49.086Z,26.58
2022-08-20T17:36:55.535Z,26.60
2022-08-20T17:40:01.384Z,26.63
2022-08-20T17:43:06.842Z,26.53
2022-08-20T17:46:12.546Z,26.42
2022-08-20T17:49:17.996Z,26.16
2022-08-20T17:52:25.181Z,25.92
2022-08-20T17:55:33.200Z,25.68
2022-08-20T17:58:38.798Z,25.37
2022-08-20T18:01:44.337Z,25.17
2022-08-20T18:04:49.901Z,24.95
2022-08-20T18:08:04.159Z,24.81
2022-08-20T18:11:09.615Z,24.53
2022-08-20T18:14:16.392Z,24.06
2022-08-20T18:17:23.695Z,23.59
2022-08-20T18:20:33.077Z,23.26
2022-08-20T18:23:41.242Z,22.93
2022-08-20T18:26:49.821Z,22.59
2022-08-20T18:29:55.449Z,22.29
2022-08-20T18:33:00.911Z,22.11
2022-08-20T18:36:06.514Z,21.90
2022-08-20T18:39:12.374Z,21.72
2022-08-20T18:42:17.676Z,21.56
2022-08-20T18:45:23.162Z,21.41
2022-08-20T18:48:29.796Z,21.26
2022-08-20T18:51:35.452Z,21.18
2022-08-20T18:54:44.035Z,21.10
2022-08-20T18:57:50.661Z,21.01
2022-08-20T19:00:56.403Z,20.90
2022-08-20T19:04:03.392Z,20.80
2022-08-20T19:07:08.790Z,20.69
2022-08-20T19:10:27.519Z,20.65
2022-08-20T19:13:33.556Z,20.57
2022-08-20T19:16:38.831Z,20.54
2022-08-20T19:19:44.281Z,20.49
2022-08-20T19:22:50.297Z,20.39
2022-08-20T19:25:56.086Z,20.36
2022-08-20T19:29:01.810Z,20.34
2022-08-20T19:32:07.543Z,20.34
2022-08-20T19:38:37.105Z,20.20
2022-08-20T19:41:42.703Z,20.14
2022-08-20T19:44:48.104Z,20.05
2022-08-20T19:47:53.300Z,19.99
2022-08-20T19:50:58.812Z,19.95
2022-08-20T19:54:04.577Z,19.93
2022-08-20T19:57:10.823Z,19.93
2022-08-20T20:00:17.423Z,19.95
2022-08-20T20:03:22.884Z,19.88
2022-08-20T20:06:28.587Z,19.81
2022-08-20T20:09:34.657Z,19.71
2022-08-20T20:12:40.635Z,19.67
2022-08-20T20:15:48.235Z,19.64
2022-08-20T20:19:15.688Z,19.64
2022-08-20T20:22:20.515Z,19.56
2022-08-20T20:25:26.088Z,19.52
2022-08-20T20:28:32.139Z,19.42
2022-08-20T20:31:39.432Z,19.32
2022-08-20T20:34:55.575Z,19.25
2022-08-20T20:38:02.160Z,19.13
2022-08-20T20:41:07.865Z,19.06
2022-08-20T20:44:13.247Z,18.95
2022-08-20T20:47:19.513Z,18.89
2022-08-20T20:50:26.470Z,18.80
2022-08-20T20:53:51.669Z,18.71
2022-08-20T20:56:57.555Z,18.63
2022-08-20T21:00:03.160Z,18.56
2022-08-20T21:03:09.072Z,18.49
2022-08-20T21:06:14.436Z,18.38
2022-08-20T21:09:20.100Z,18.30
2022-08-20T21:12:25.851Z,18.16
2022-08-20T21:15:32.051Z,18.09
2022-08-20T21:18:37.765Z,18.02
2022-08-20T21:21:43.870Z,18.03
2022-08-20T21:24:51.519Z,18.07
2022-08-20T21:27:57.142Z,18.07
2022-08-20T21:31:02.562Z,18.01
2022-08-20T21:34:07.949Z,17.98
2022-08-20T21:37:13.486Z,17.94
2022-08-20T21:40:21.510Z,17.87
2022-08-20T21:43:27.735Z,17.82
2022-08-20T21:46:38.209Z,17.85
2022-08-20T21:49:44.054Z,17.96
2022-08-20T21:52:59.407Z,18.00
2022-08-20T21:56:06.562Z,17.96
2022-08-20T21:59:12.086Z,17.95
2022-08-20T22:02:17.229Z,17.90
2022-08-20T22:05:22.933Z,17.83
2022-08-20T22:08:28.512Z,17.69
2022-08-20T22:11:34.537Z,17.56
2022-08-20T22:14:40.324Z,17.49
2022-08-20T22:17:46.131Z,17.41
2022-08-20T22:20:51.966Z,17.38
2022-08-20T22:23:57.311Z,17.32
2022-08-20T22:27:02.565Z,17.33
2022-08-20T22:30:07.717Z,17.33
2022-08-20T22:33:13.388Z,17.32
2022-08-20T22:36:21.120Z,17.33
2022-08-20T22:39:26.767Z,17.34
2022-08-20T22:42:31.960Z,17.31
2022-08-20T22:45:37.876Z,17.28
2022-08-20T22:48:43.359Z,17.27
2022-08-20T22:51:51.119Z,17.30
2022-08-20T22:54:58.563Z,17.31
2022-08-20T22:58:05.120Z,17.38
2022-08-20T23:01:11.013Z,17.38
2022-08-20T23:04:16.693Z,17.34
2022-08-20T23:07:21.854Z,17.32
2022-08-20T23:10:27.268Z,17.23
2022-08-20T23:13:32.891Z,17.13
2022-08-20T23:16:58.795Z,17.06
2022-08-20T23:20:04.855Z,17.01
2022-08-20T23:23:10.613Z,16.96
2022-08-20T23:26:19.191Z,16.93
2022-08-20T23:29:25.874Z,16.93
2022-08-20T23:32:35.525Z,17.05
2022-08-20T23:35:41.670Z,17.12
2022-08-20T23:38:47.515Z,17.02
2022-08-20T23:41:53.028Z,16.91
2022-08-20T23:44:58.477Z,16.76
2022-08-20T23:48:04.393Z,16.58
2022-08-20T23:51:10.184Z,16.45
2022-08-20T23:54:15.441Z,16.38
2022-08-20T23:57:21.299Z,16.37
